Disclaimer

Please do not use the information listed here in-flight or in-navigation, as they are not provided to us by the airports but are provided by volunteers, so they might be outdated.

Search


Regions


Airport information page

Radio informations:
FORTALEZA TWR - 129.0 MHz
FORTALEZA OPS - 122.5 MHz
Ground (GND) - 121.95 MHz
Automatic Terminal Information Service (ATIS) - 127.7 MHz
FORTALEZA APP - 133.0 MHz

Airport informations:
Latitude: 03° 46' 34.62" S
Longitude: 038° 31' 57.20" W
Elevation: 82 feet - 25 meters
Operating hours: N/A
Operating agency: Military-civil joint use airport
Timezone: UTC-3(-2DT)
Fuel: Jet A1, without icing nhibitor.

100/130 octane gasoline, leaded, MIL-L-5572F (GREEN)

Runway information:
13/31 - 8350 x 148 feet< - >2545 x 45 meters

Recent METARs:
SBFZ 190200Z 08012KT CAVOK 27/23 Q1012
SBFZ 190200Z 08012KT CAVOK 27/23 Q1012
SBFZ 190300Z 09014KT CAVOK 27/22 Q1012

Airport on the map: